Time;durP1;ratioP1;P1;durP2;ratioP2;P2;SDS_P1;SDS_P2;PMS_P1;PMS_P2;Temp;Humidity;BMP_temperature;BMP_pressure;BME280_temperature;BME280_humidity;BME280_pressure;Samples;Min_cycle;Max_cycle;Signal;HPM_P1;HPM_P2
2021/07/19 00:00:22;;;;;;;;;;;;;;;28.61;56.50;98716.64;376323;105;1959906;-74
2021/07/19 00:01:27;;;;;;;;;;;;;;;28.60;56.58;98713.02;374739;107;1959972;-73
2021/07/19 00:02:39;;;;;;;;;;;;;;;28.71;56.70;98719.75;389081;104;2949982;-72
2021/07/19 00:03:44;;;;;;;;;;;;;;;28.58;56.68;98715.37;380128;105;1961974;-73
2021/07/19 00:04:56;;;;;;;;;;;;;;;28.66;56.63;98711.65;388440;104;1960013;-74
2021/07/19 00:06:08;;;;;;;;;;;;;;;28.65;56.68;98706.42;396982;104;1960006;-73
2021/07/19 00:07:13;;;;;;;;;;;;;;;28.54;56.67;98713.63;384309;105;1960006;-73
2021/07/19 00:08:18;;;;;;;;;;;;;;;28.55;56.60;98713.26;387024;105;1960009;-72
2021/07/19 00:09:23;;;;;;;;;;;;;;;28.51;56.72;98701.23;383863;105;1961035;-73
2021/07/19 00:10:28;;;;;;;;;;;;;;;28.49;56.89;98712.69;338532;107;2131939;-73
2021/07/19 00:11:41;;;;;;;;;;;;;;;28.58;57.04;98708.97;396882;104;1960024;-73
2021/07/19 00:12:46;;;;;;;;;;;;;;;28.40;57.25;98713.96;381144;106;1959876;-72
2021/07/19 00:13:58;;;;;;;;;;;;;;;28.52;57.09;98708.41;401449;104;1959908;-73
2021/07/19 00:15:05;;;;;;;;;;;;;;;28.41;57.08;98708.03;380216;105;1960026;-73
2021/07/19 00:16:17;;;;;;;;;;;;;;;28.53;57.07;98698.93;395559;104;1960052;-73
2021/07/19 00:17:23;;;;;;;;;;;;;;;28.39;56.92;98706.77;374123;106;1960993;-72
2021/07/19 00:18:46;;;;;;;;;;;;;;;28.36;56.83;98705.48;378126;107;1960000;-71
2021/07/19 00:19:52;;;;;;;;;;;;;;;28.34;56.82;98704.22;374397;107;1960063;-71
2021/07/19 00:20:58;;;;;;;;;;;;;;;28.34;56.95;98702.28;374469;108;1959942;-72
2021/07/19 00:22:09;;;;;;;;;;;;;;;28.45;56.90;98699.87;392561;104;1959971;-72
2021/07/19 00:23:15;;;;;;;;;;;;;;;28.32;56.91;98695.45;333657;106;2185978;-70
2021/07/19 00:24:26;;;;;;;;;;;;;;;28.42;56.98;98690.23;400522;104;1960039;-72
2021/07/19 00:25:31;;;;;;;;;;;;;;;28.31;56.81;98700.17;373895;109;1959936;-73
2021/07/19 00:26:36;;;;;;;;;;;;;;;28.32;56.72;98695.45;343683;109;2013983;-73
2021/07/19 00:27:43;;;;;;;;;;;;;;;28.17;56.82;98692.19;321028;108;2606995;-72
2021/07/19 00:28:55;;;;;;;;;;;;;;;28.27;57.38;98694.51;395462;104;1960073;-72
2021/07/19 00:30:10;;;;;;;;;;;;;;;28.31;57.04;98689.05;396919;104;1959905;-72
2021/07/19 00:31:15;;;;;;;;;;;;;;;28.21;57.21;98687.58;374992;107;1960136;-72
2021/07/19 00:32:28;;;;;;;;;;;;;;;28.35;57.43;98698.33;388650;106;1959975;-72
2021/07/19 00:33:34;;;;;;;;;;;;;;;28.23;57.44;98692.77;370594;109;1959918;-71
2021/07/19 00:34:57;;;;;;;;;;;;;;;28.22;57.53;98696.71;368764;109;1960159;-72
2021/07/19 00:36:02;;;;;;;;;;;;;;;28.20;57.70;98694.27;361033;113;1960020;-71
2021/07/19 00:37:07;;;;;;;;;;;;;;;28.19;57.94;98697.41;342936;113;1960018;-70
2021/07/19 00:38:12;;;;;;;;;;;;;;;28.14;57.95;98687.34;308597;113;2202997;-70
2021/07/19 00:39:17;;;;;;;;;;;;;;;28.10;58.22;98685.59;300383;113;2525766;-71
2021/07/19 00:40:24;;;;;;;;;;;;;;;28.07;58.17;98687.09;307732;113;2283005;-71
2021/07/19 00:41:40;;;;;;;;;;;;;;;28.17;58.33;98686.64;388819;104;2832950;-71
2021/07/19 00:42:47;;;;;;;;;;;;;;;28.05;58.49;98690.23;378388;107;1960915;-72
2021/07/19 00:43:59;;;;;;;;;;;;;;;28.16;58.02;98685.03;400934;103;1960047;-72
2021/07/19 00:45:09;;;;;;;;;;;;;;;28.04;58.06;98682.23;382216;105;1960077;-71
2021/07/19 00:46:32;;;;;;;;;;;;;;;28.04;58.01;98685.81;374927;107;1960110;-71
2021/07/19 00:47:38;;;;;;;;;;;;;;;28.08;58.18;98679.56;375157;107;1960938;-71
2021/07/19 00:48:43;;;;;;;;;;;;;;;28.09;58.01;98683.98;378655;107;1961058;-72
2021/07/19 00:49:49;;;;;;;;;;;;;;;28.09;58.09;98684.78;380537;107;1960994;-72
2021/07/19 00:51:01;;;;;;;;;;;;;;;28.20;57.76;98683.16;402042;104;1960024;-72
2021/07/19 00:52:06;;;;;;;;;;;;;;;28.09;57.96;98682.01;373777;109;1959969;-73
2021/07/19 00:53:11;;;;;;;;;;;;;;;28.09;58.08;98679.23;374789;109;1960029;-72
2021/07/19 00:54:25;;;;;;;;;;;;;;;28.18;58.13;98684.66;399694;103;1959989;-71
2021/07/19 00:55:38;;;;;;;;;;;;;;;28.17;58.23;98685.83;401967;104;1960869;-73
2021/07/19 00:57:02;;;;;;;;;;;;;;;28.04;58.28;98690.56;388103;105;1961033;-72
2021/07/19 00:58:09;;;;;;;;;;;;;;;28.02;58.34;98684.54;383272;105;1959946;-73
2021/07/19 00:59:22;;;;;;;;;;;;;;;28.12;58.36;98686.86;399918;104;1961013;-72
2021/07/19 01:00:28;;;;;;;;;;;;;;;28.01;58.33;98680.96;332533;109;2138906;-71
2021/07/19 01:01:37;;;;;;;;;;;;;;;27.95;58.14;98676.00;373088;109;1960023;-70
2021/07/19 01:02:45;;;;;;;;;;;;;;;27.83;58.23;98680.36;372545;107;1961001;-72
2021/07/19 01:03:52;;;;;;;;;;;;;;;27.78;58.82;98680.55;373867;107;1959996;-72
2021/07/19 01:04:59;;;;;;;;;;;;;;;27.74;58.98;98682.41;373216;107;1961911;-71
2021/07/19 01:06:12;;;;;;;;;;;;;;;28.03;58.61;98681.44;400427;104;1961013;-72
2021/07/19 01:07:19;;;;;;;;;;;;;;;27.92;58.67;98680.27;378668;107;1959984;-72
2021/07/19 01:08:27;;;;;;;;;;;;;;;27.89;58.72;98680.13;336687;107;2739014;-73
2021/07/19 01:09:39;;;;;;;;;;;;;;;27.96;58.82;98680.38;399168;104;1959952;-72
2021/07/19 01:10:50;;;;;;;;;;;;;;;27.93;59.04;98678.30;396842;103;1959928;-72
2021/07/19 01:12:15;;;;;;;;;;;;;;;27.77;58.75;98678.94;384172;105;1960006;-73
2021/07/19 01:13:28;;;;;;;;;;;;;;;27.77;58.53;98675.36;399810;104;1960813;-71
2021/07/19 01:14:34;;;;;;;;;;;;;;;27.56;59.18;98679.01;304875;106;2448983;-72
2021/07/19 01:16:00;;;;;;;;;;;;;;;27.45;59.74;98680.60;376266;107;1959980;-72
2021/07/19 01:17:12;;;;;;;;;;;;;;;27.45;60.40;98679.80;403596;104;1960770;-71
2021/07/19 01:18:16;;;;;;;;;;;;;;;27.27;60.59;98679.16;384263;105;1959927;-72
2021/07/19 01:19:30;;;;;;;;;;;;;;;27.30;61.02;98676.50;404495;104;1959974;-71
2021/07/19 01:20:41;;;;;;;;;;;;;;;27.15;61.19;98675.16;372785;107;1961022;-71
2021/07/19 01:22:05;;;;;;;;;;;;;;;27.11;61.00;98676.17;369742;107;1960031;-71
2021/07/19 01:23:29;;;;;;;;;;;;;;;27.25;60.84;98676.70;396780;103;1959869;-71
2021/07/19 01:24:42;;;;;;;;;;;;;;;27.14;60.61;98681.03;324488;107;2268936;-69
2021/07/19 01:26:09;;;;;;;;;;;;;;;27.38;60.08;98678.38;355928;104;2718041;-72
2021/07/19 01:27:39;;;;;;;;;;;;;;;27.45;59.94;98679.80;392004;104;1960085;-70
2021/07/19 01:29:03;;;;;;;;;;;;;;;27.35;59.98;98670.74;378327;107;1960010;-70
2021/07/19 01:30:16;;;;;;;;;;;;;;;27.55;59.80;98671.05;391592;103;1959965;-71
2021/07/19 01:31:27;;;;;;;;;;;;;;;27.48;59.04;98681.88;373135;109;1961050;-71
2021/07/19 01:32:51;;;;;;;;;;;;;;;27.50;58.95;98685.13;373608;108;1960098;-71
2021/07/19 01:34:07;;;;;;;;;;;;;;;27.64;58.56;98677.30;358931;104;2806948;-71
2021/07/19 01:35:13;;;;;;;;;;;;;;;27.55;58.33;98680.17;376849;107;1958973;-72
2021/07/19 01:36:28;;;;;;;;;;;;;;;27.75;58.11;98675.69;402567;104;1958853;-71
2021/07/19 01:37:45;;;;;;;;;;;;;;;27.84;57.88;98670.09;398341;104;1958996;-71
2021/07/19 01:38:52;;;;;;;;;;;;;;;27.79;57.59;98676.64;380384;106;1959961;-71
2021/07/19 01:39:59;;;;;;;;;;;;;;;27.84;57.41;98675.64;378735;106;1959999;-71
2021/07/19 01:41:06;;;;;;;;;;;;;;;27.85;57.09;98674.47;380327;106;1959953;-71
2021/07/19 01:42:12;;;;;;;;;;;;;;;27.83;57.13;98677.58;311232;106;2372028;-71
2021/07/19 01:43:26;;;;;;;;;;;;;;;27.93;56.71;98683.86;396208;104;1959995;-71
2021/07/19 01:44:31;;;;;;;;;;;;;;;27.77;56.63;98683.69;381447;106;1959933;-71
2021/07/19 01:45:39;;;;;;;;;;;;;;;27.73;56.95;98679.97;373040;107;1959811;-72
2021/07/19 01:46:53;;;;;;;;;;;;;;;27.78;56.84;98676.97;399103;104;1959920;-72
2021/07/19 01:47:59;;;;;;;;;;;;;;;27.65;56.74;98678.91;376574;105;1960002;-73
2021/07/19 01:49:12;;;;;;;;;;;;;;;27.61;57.05;98684.34;398580;104;1960012;-72
2021/07/19 01:50:17;;;;;;;;;;;;;;;27.60;57.11;98679.95;383833;105;1959925;-71
2021/07/19 01:51:43;;;;;;;;;;;;;;;27.65;57.09;98690.00;378949;107;1960917;-71
2021/07/19 01:52:55;;;;;;;;;;;;;;;27.78;56.65;98686.09;396103;104;1959971;-72
2021/07/19 01:54:00;;;;;;;;;;;;;;;27.66;56.91;98686.09;381835;107;1960027;-72
2021/07/19 01:55:06;;;;;;;;;;;;;;;27.68;56.81;98683.80;372709;109;1960054;-72
2021/07/19 01:56:19;;;;;;;;;;;;;;;27.80;56.99;98688.54;348597;104;2548038;-72
2021/07/19 01:57:24;;;;;;;;;;;;;;;27.56;57.20;98687.33;355989;107;1959904;-71
2021/07/19 01:58:32;;;;;;;;;;;;;;;27.54;57.18;98686.05;380075;106;1961074;-71
2021/07/19 01:59:44;;;;;;;;;;;;;;;27.61;57.07;98689.09;395947;104;1959944;-71
2021/07/19 02:00:52;;;;;;;;;;;;;;;27.48;57.08;98684.66;373312;106;1959936;-71
2021/07/19 02:02:05;;;;;;;;;;;;;;;27.55;56.96;98682.95;399524;104;1960975;-71
2021/07/19 02:03:11;;;;;;;;;;;;;;;27.36;56.81;98689.02;382453;105;1959993;-70
2021/07/19 02:04:23;;;;;;;;;;;;;;;27.42;57.08;98688.81;385235;106;1960073;-72
2021/07/19 02:05:28;;;;;;;;;;;;;;;27.27;57.27;98681.93;353347;111;1959983;-70
2021/07/19 02:06:36;;;;;;;;;;;;;;;27.28;57.20;98686.31;363689;111;1960067;-72
2021/07/19 02:07:43;;;;;;;;;;;;;;;27.31;57.02;98685.62;364254;110;1959984;-71
2021/07/19 02:09:05;;;;;;;;;;;;;;;27.29;56.94;98677.66;365830;111;1960080;-71
2021/07/19 02:10:12;;;;;;;;;;;;;;;27.29;57.09;98676.86;338803;115;1961040;-73
2021/07/19 02:11:26;;;;;;;;;;;;;;;27.29;57.09;98682.41;344506;116;2932632;-70
2021/07/19 02:12:33;;;;;;;;;;;;;;;27.30;57.07;98682.05;358550;113;1960189;-72
2021/07/19 02:13:48;;;;;;;;;;;;;;;27.44;57.16;98686.48;392935;104;1960000;-69
2021/07/19 02:14:54;;;;;;;;;;;;;;;27.33;57.10;98677.78;381125;105;1961984;-71
2021/07/19 02:16:07;;;;;;;;;;;;;;;27.40;57.06;98689.14;396023;103;1960105;-71
2021/07/19 02:17:13;;;;;;;;;;;;;;;27.25;57.21;98687.80;371299;108;1960033;-69
2021/07/19 02:18:40;;;;;;;;;;;;;;;27.23;57.32;98692.90;358546;109;2949076;-72
2021/07/19 02:19:52;;;;;;;;;;;;;;;27.27;57.54;98682.73;389955;106;1962067;-72
2021/07/19 02:21:01;;;;;;;;;;;;;;;27.10;57.36;98694.77;371416;109;1959956;-72
2021/07/19 02:22:13;;;;;;;;;;;;;;;27.18;57.67;98690.34;401433;103;1959971;-72
2021/07/19 02:23:24;;;;;;;;;;;;;;;27.06;57.74;98696.59;381818;105;1959984;-71
2021/07/19 02:24:31;;;;;;;;;;;;;;;27.08;57.82;98701.80;382674;105;1961042;-72
2021/07/19 02:25:54;;;;;;;;;;;;;;;27.09;57.72;98695.09;380101;106;1959989;-70
2021/07/19 02:27:00;;;;;;;;;;;;;;;27.07;57.64;98695.45;380921;106;1961008;-70
2021/07/19 02:28:07;;;;;;;;;;;;;;;27.04;57.73;98693.33;381209;106;1959910;-71
2021/07/19 02:29:15;;;;;;;;;;;;;;;26.99;57.97;98696.31;381047;107;1959907;-71
2021/07/19 02:30:27;;;;;;;;;;;;;;;27.05;58.14;98696.94;392757;104;1959891;-71
2021/07/19 02:31:33;;;;;;;;;;;;;;;26.91;58.36;98699.97;375652;108;1959902;-72
2021/07/19 02:32:41;;;;;;;;;;;;;;;26.91;58.35;98698.03;377355;108;1960031;-71
2021/07/19 02:33:54;;;;;;;;;;;;;;;27.01;58.04;98699.56;397669;104;1959993;-71
2021/07/19 02:35:03;;;;;;;;;;;;;;;26.91;57.95;98699.97;343794;107;2839992;-70
2021/07/19 02:36:17;;;;;;;;;;;;;;;27.04;58.04;98704.42;399951;104;1959781;-71
2021/07/19 02:37:24;;;;;;;;;;;;;;;26.91;58.05;98709.11;317179;107;2299047;-72
2021/07/19 02:38:34;;;;;;;;;;;;;;;26.87;58.22;98704.58;375062;107;1960019;-72
2021/07/19 02:40:00;;;;;;;;;;;;;;;26.84;58.31;98703.30;376203;108;1960063;-71
2021/07/19 02:41:12;;;;;;;;;;;;;;;26.91;58.50;98703.57;402428;104;1959990;-69
2021/07/19 02:42:17;;;;;;;;;;;;;;;26.77;58.71;98711.32;383517;105;1959776;-71
2021/07/19 02:43:23;;;;;;;;;;;;;;;26.74;58.67;98704.49;383219;105;1959909;-73
2021/07/19 02:44:29;;;;;;;;;;;;;;;26.71;58.73;98705.17;385774;105;1959829;-71
2021/07/19 02:45:42;;;;;;;;;;;;;;;26.79;58.67;98705.45;382760;104;2832041;-71
2021/07/19 02:46:49;;;;;;;;;;;;;;;26.67;58.82;98708.94;376887;107;1959972;-71
2021/07/19 02:47:55;;;;;;;;;;;;;;;26.64;59.14;98717.93;378340;107;1960038;-73
2021/07/19 02:49:10;;;;;;;;;;;;;;;26.60;59.17;98714.23;331347;107;2794035;-70
2021/07/19 02:50:20;;;;;;;;;;;;;;;26.67;59.73;98720.02;374369;104;1960062;-71
2021/07/19 02:51:33;;;;;;;;;;;;;;;26.63;60.45;98721.86;387225;106;1960015;-71
2021/07/19 02:52:41;;;;;;;;;;;;;;;26.48;60.96;98725.98;365169;108;1959942;-71
2021/07/19 02:53:50;;;;;;;;;;;;;;;26.34;60.87;98740.06;369729;109;1960037;-72
2021/07/19 02:54:57;;;;;;;;;;;;;;;26.20;61.13;98747.80;366814;109;1961125;-70
2021/07/19 02:56:06;;;;;;;;;;;;;;;26.07;61.26;98746.86;362292;111;1961073;-71
2021/07/19 02:57:12;;;;;;;;;;;;;;;25.87;61.84;98743.65;302400;112;2307835;-71
2021/07/19 02:58:26;;;;;;;;;;;;;;;25.87;62.02;98740.08;396282;104;1959872;-72
2021/07/19 02:59:31;;;;;;;;;;;;;;;25.66;62.14;98737.97;379317;107;1961047;-72
2021/07/19 03:00:38;;;;;;;;;;;;;;;25.60;62.54;98747.59;306777;110;2316068;-72
2021/07/19 03:01:53;;;;;;;;;;;;;;;25.52;63.56;98751.19;390685;106;1961006;-71
2021/07/19 03:03:04;;;;;;;;;;;;;;;25.34;63.51;98741.28;331489;109;2714995;-72
2021/07/19 03:04:16;;;;;;;;;;;;;;;25.38;63.91;98751.37;393927;106;1959967;-70
2021/07/19 03:05:23;;;;;;;;;;;;;;;25.23;63.92;98749.90;371598;109;1960063;-71
2021/07/19 03:06:48;;;;;;;;;;;;;;;25.15;63.85;98747.95;370477;108;1959980;-71
2021/07/19 03:08:04;;;;;;;;;;;;;;;25.22;64.51;98739.19;362345;104;2610967;-71
2021/07/19 03:09:12;;;;;;;;;;;;;;;25.08;64.16;98750.34;341704;105;2814981;-71
2021/07/19 03:10:22;;;;;;;;;;;;;;;25.04;64.81;98745.81;385613;105;1960026;-72
2021/07/19 03:11:38;;;;;;;;;;;;;;;25.14;64.49;98745.47;397245;104;1960054;-71
2021/07/19 03:12:44;;;;;;;;;;;;;;;25.01;64.47;98753.61;376188;107;1959912;-70
2021/07/19 03:13:52;;;;;;;;;;;;;;;24.99;64.54;98749.55;369857;109;1959978;-71
2021/07/19 03:15:05;;;;;;;;;;;;;;;25.05;65.00;98744.67;399932;104;1960018;-71
2021/07/19 03:16:12;;;;;;;;;;;;;;;24.94;64.53;98742.22;383026;106;1960056;-72
2021/07/19 03:17:25;;;;;;;;;;;;;;;25.10;64.37;98747.27;362378;104;2579034;-70
2021/07/19 03:18:38;;;;;;;;;;;;;;;24.96;64.76;98745.48;378364;105;1959941;-71
2021/07/19 03:20:02;;;;;;;;;;;;;;;25.25;63.57;98746.82;366841;107;1960052;-71
2021/07/19 03:21:15;;;;;;;;;;;;;;;25.44;63.22;98752.81;399549;104;1959940;-71
2021/07/19 03:22:22;;;;;;;;;;;;;;;25.40;63.04;98751.02;326425;109;2818010;-70
2021/07/19 03:23:37;;;;;;;;;;;;;;;25.54;62.99;98748.11;389483;106;1961058;-70
2021/07/19 03:24:45;;;;;;;;;;;;;;;25.46;62.91;98755.27;371243;109;1960861;-71
2021/07/19 03:26:09;;;;;;;;;;;;;;;25.51;62.89;98752.34;359474;111;1960024;-70
2021/07/19 03:27:22;;;;;;;;;;;;;;;25.65;62.50;98758.48;400578;104;1960056;-71
2021/07/19 03:28:30;;;;;;;;;;;;;;;25.53;62.87;98754.75;327771;105;2545984;-70
2021/07/19 03:29:42;;;;;;;;;;;;;;;25.67;62.65;98755.41;398560;104;1960140;-72
2021/07/19 03:30:52;;;;;;;;;;;;;;;25.57;62.43;98753.78;374051;109;1960041;-71
2021/07/19 03:32:20;;;;;;;;;;;;;;;25.64;62.44;98756.03;374401;109;1960980;-72
2021/07/19 03:33:26;;;;;;;;;;;;;;;25.66;62.26;98765.63;321815;109;2194941;-72
2021/07/19 03:34:39;;;;;;;;;;;;;;;25.82;62.22;98756.82;396525;104;1960077;-72
2021/07/19 03:35:47;;;;;;;;;;;;;;;25.80;62.21;98753.56;341165;107;2817987;-70
2021/07/19 03:36:53;;;;;;;;;;;;;;;25.92;61.95;98762.03;367230;109;1959926;-71
2021/07/19 03:37:59;;;;;;;;;;;;;;;26.02;61.60;98764.45;363948;111;1960090;-71
2021/07/19 03:39:08;;;;;;;;;;;;;;;26.16;61.27;98761.47;365306;111;1960003;-72
2021/07/19 03:40:21;;;;;;;;;;;;;;;26.41;60.89;98758.91;398968;104;1959993;-72
2021/07/19 03:41:31;;;;;;;;;;;;;;;26.40;60.56;98758.10;381291;106;1959982;-72
2021/07/19 03:42:44;;;;;;;;;;;;;;;26.65;60.09;98761.13;389492;106;1960982;-72
2021/07/19 03:43:50;;;;;;;;;;;;;;;26.60;59.84;98758.54;327504;109;2582027;-72
2021/07/19 03:45:03;;;;;;;;;;;;;;;26.80;59.65;98754.17;396093;104;1960983;-72
2021/07/19 03:46:15;;;;;;;;;;;;;;;26.87;59.44;98757.23;397452;104;1960053;-72
2021/07/19 03:47:22;;;;;;;;;;;;;;;26.80;59.37;98754.97;347119;105;2839078;-72
2021/07/19 03:48:34;;;;;;;;;;;;;;;26.99;59.24;98746.20;398670;104;1960018;-72
2021/07/19 03:49:41;;;;;;;;;;;;;;;26.94;59.06;98751.97;379691;107;1960084;-73
2021/07/19 03:51:05;;;;;;;;;;;;;;;27.01;58.87;98751.42;371546;108;1960894;-73
2021/07/19 03:52:17;;;;;;;;;;;;;;;27.19;58.69;98744.63;392910;106;1960964;-71
2021/07/19 03:53:25;;;;;;;;;;;;;;;27.14;58.55;98744.80;361007;112;1962013;-71
2021/07/19 03:54:35;;;;;;;;;;;;;;;27.18;58.39;98751.33;358200;111;1959963;-71
2021/07/19 03:55:48;;;;;;;;;;;;;;;27.36;58.27;98749.20;389746;106;1960014;-72
2021/07/19 03:56:54;;;;;;;;;;;;;;;27.30;58.08;98750.56;372672;107;1960050;-71
2021/07/19 03:58:06;;;;;;;;;;;;;;;27.47;58.00;98753.20;397823;103;1960966;-72
2021/07/19 03:59:13;;;;;;;;;;;;;;;27.43;57.91;98748.66;379586;107;1960034;-71
2021/07/19 04:00:19;;;;;;;;;;;;;;;27.11;57.70;98690.03;373108;107;1960049;-72
2021/07/19 04:01:26;;;;;;;;;;;;;;;27.56;57.64;98761.42;371338;107;1960867;-72
2021/07/19 04:02:39;;;;;;;;;;;;;;;27.72;57.61;98756.85;396876;104;1960021;-72
2021/07/19 04:03:53;;;;;;;;;;;;;;;27.66;57.72;98758.23;377928;107;1960016;-73
2021/07/19 04:05:04;;;;;;;;;;;;;;;27.71;57.66;98762.77;375661;106;1960076;-72
2021/07/19 04:06:17;;;;;;;;;;;;;;;27.87;57.73;98763.77;389887;106;1960044;-71
2021/07/19 04:07:25;;;;;;;;;;;;;;;27.75;57.89;98761.72;304906;113;2278983;-72
2021/07/19 04:08:37;;;;;;;;;;;;;;;27.90;57.80;98759.48;399380;104;1960139;-72
2021/07/19 04:09:43;;;;;;;;;;;;;;;27.83;57.77;98758.06;380602;107;1959955;-72
2021/07/19 04:11:08;;;;;;;;;;;;;;;27.88;57.73;98759.02;374111;107;1961968;-71
2021/07/19 04:12:15;;;;;;;;;;;;;;;27.92;57.81;98760.77;375092;107;1959993;-72
2021/07/19 04:13:29;;;;;;;;;;;;;;;28.04;57.83;98755.22;387556;104;1960436;-70
2021/07/19 04:14:36;;;;;;;;;;;;;;;27.94;57.95;98760.41;381358;107;1960056;-69
2021/07/19 04:15:50;;;;;;;;;;;;;;;28.08;57.97;98755.36;360895;104;2624007;-71
2021/07/19 04:16:58;;;;;;;;;;;;;;;27.99;58.02;98754.64;361514;106;2834030;-72
2021/07/19 04:18:10;;;;;;;;;;;;;;;28.11;58.08;98749.11;393323;104;1959903;-71
2021/07/19 04:19:16;;;;;;;;;;;;;;;28.04;58.07;98754.42;379076;107;1959975;-71
2021/07/19 04:20:29;;;;;;;;;;;;;;;28.20;58.11;98749.80;389785;106;1960936;-73
2021/07/19 04:21:35;;;;;;;;;;;;;;;28.13;58.00;98751.53;368406;109;1959947;-71
2021/07/19 04:22:48;;;;;;;;;;;;;;;28.21;58.03;98751.45;401107;104;1959959;-71
2021/07/19 04:23:54;;;;;;;;;;;;;;;28.08;58.16;98754.52;383575;105;1960002;-72
2021/07/19 04:25:19;;;;;;;;;;;;;;;28.03;58.49;98748.06;383462;105;1960018;-73
2021/07/19 04:26:31;;;;;;;;;;;;;;;28.11;58.61;98751.09;396721;104;1959968;-71
2021/07/19 04:27:40;;;;;;;;;;;;;;;27.99;58.79;98754.64;308832;106;2478048;-74
2021/07/19 04:28:53;;;;;;;;;;;;;;;28.04;58.93;98751.64;391111;106;1960056;-73
2021/07/19 04:29:59;;;;;;;;;;;;;;;27.94;59.16;98752.08;367551;109;1960063;-73
2021/07/19 04:31:24;;;;;;;;;;;;;;;27.94;59.23;98754.86;363894;109;1960055;-73
2021/07/19 04:32:43;;;;;;;;;;;;;;;28.09;59.21;98748.64;374816;106;1959944;-72
2021/07/19 04:33:49;;;;;;;;;;;;;;;28.04;59.26;98752.45;372745;109;1959947;-71
2021/07/19 04:34:57;;;;;;;;;;;;;;;28.12;59.18;98752.70;308740;109;2509980;-72
2021/07/19 04:36:09;;;;;;;;;;;;;;;28.25;59.13;98737.67;401317;104;1959974;-71
2021/07/19 04:37:14;;;;;;;;;;;;;;;28.27;58.89;98749.25;378558;105;1959927;-73
2021/07/19 04:38:25;;;;;;;;;;;;;;;28.34;58.69;98752.27;352961;109;1962039;-72
2021/07/19 04:39:37;;;;;;;;;;;;;;;28.53;58.51;98757.27;397868;104;1960030;-72
2021/07/19 04:40:45;;;;;;;;;;;;;;;28.48;58.34;98749.17;329541;108;2752023;-71
2021/07/19 04:41:58;;;;;;;;;;;;;;;28.70;58.06;98748.68;400636;104;1959900;-71
2021/07/19 04:43:03;;;;;;;;;;;;;;;28.68;57.82;98742.66;380621;105;1960060;-72
2021/07/19 04:44:26;;;;;;;;;;;;;;;28.80;57.51;98743.81;326795;105;2603920;-71
2021/07/19 04:45:38;;;;;;;;;;;;;;;28.99;57.19;98745.98;396036;104;1960012;-73
2021/07/19 04:46:43;;;;;;;;;;;;;;;28.95;56.98;98743.10;376847;107;1959928;-70
2021/07/19 04:47:49;;;;;;;;;;;;;;;29.00;56.70;98742.83;377275;107;1959995;-72
2021/07/19 04:48:54;;;;;;;;;;;;;;;29.06;56.49;98743.45;378569;106;1961010;-72
2021/07/19 04:50:07;;;;;;;;;;;;;;;29.19;56.30;98745.03;397738;104;1959977;-73
2021/07/19 04:51:14;;;;;;;;;;;;;;;29.13;56.16;98741.66;335471;107;2712982;-72
2021/07/19 04:52:20;;;;;;;;;;;;;;;29.16;55.53;98745.72;310773;106;2487018;-71
2021/07/19 04:53:32;;;;;;;;;;;;;;;29.23;55.11;98743.16;397753;104;1959955;-72
2021/07/19 04:54:38;;;;;;;;;;;;;;;29.09;54.98;98751.89;380955;107;1959915;-71
2021/07/19 04:55:45;;;;;;;;;;;;;;;29.04;54.93;98741.02;374998;108;1960043;-72
2021/07/19 04:57:00;;;;;;;;;;;;;;;29.12;54.84;98740.06;399106;104;1959883;-72
2021/07/19 04:58:15;;;;;;;;;;;;;;;29.10;54.96;98739.59;388348;104;1960959;-71
2021/07/19 04:59:40;;;;;;;;;;;;;;;28.95;54.90;98734.77;301093;107;2464749;-72
2021/07/19 05:00:55;;;;;;;;;;;;;;;29.03;54.55;98731.03;397019;104;1959945;-71
2021/07/19 05:02:01;;;;;;;;;;;;;;;28.90;54.30;98743.34;371102;107;1960032;-72
2021/07/19 05:03:13;;;;;;;;;;;;;;;28.97;54.52;98739.95;398755;104;1959990;-72
2021/07/19 05:04:24;;;;;;;;;;;;;;;28.84;54.70;98739.97;378863;106;1959937;-72
2021/07/19 05:05:36;;;;;;;;;;;;;;;28.97;54.69;98737.98;400896;104;1959965;-72
2021/07/19 05:06:44;;;;;;;;;;;;;;;28.84;54.66;98741.94;343540;105;2701043;-71
2021/07/19 05:07:50;;;;;;;;;;;;;;;28.84;54.69;98733.60;386185;105;1960021;-71
2021/07/19 05:09:02;;;;;;;;;;;;;;;28.97;54.47;98732.42;399097;103;1959846;-72
2021/07/19 05:10:09;;;;;;;;;;;;;;;28.86;54.51;98736.85;376236;105;1959955;-71
2021/07/19 05:11:22;;;;;;;;;;;;;;;28.79;54.73;98737.45;390360;106;1959918;-73
2021/07/19 05:12:29;;;;;;;;;;;;;;;28.78;54.57;98729.45;370436;108;1959836;-72
2021/07/19 05:13:52;;;;;;;;;;;;;;;28.57;55.15;98735.95;370535;109;1960072;-72
2021/07/19 05:15:05;;;;;;;;;;;;;;;28.68;55.03;98737.09;396390;104;1959983;-74
2021/07/19 05:16:12;;;;;;;;;;;;;;;28.56;54.92;98739.10;342955;107;2811060;-73
2021/07/19 05:17:17;;;;;;;;;;;;;;;28.56;54.89;98736.33;354016;107;1960987;-73
2021/07/19 05:18:24;;;;;;;;;;;;;;;28.59;54.80;98735.63;317871;108;2283004;-72
2021/07/19 05:19:37;;;;;;;;;;;;;;;28.70;54.47;98737.56;392937;106;1959927;-73
2021/07/19 05:20:44;;;;;;;;;;;;;;;28.58;54.60;98743.16;299329;109;2505901;-72
2021/07/19 05:21:49;;;;;;;;;;;;;;;28.57;54.65;98744.29;364758;110;1960061;-72
2021/07/19 05:23:02;;;;;;;;;;;;;;;28.70;54.62;98740.34;398343;104;1960952;-72
2021/07/19 05:24:07;;;;;;;;;;;;;;;28.59;54.70;98743.95;378924;105;1960077;-72
2021/07/19 05:25:13;;;;;;;;;;;;;;;28.60;54.67;98742.78;374396;107;1959933;-73
2021/07/19 05:26:17;;;;;;;;;;;;;;;28.62;54.52;98749.61;374412;108;1960069;-72
2021/07/19 05:27:22;;;;;;;;;;;;;;;28.64;54.46;98744.53;372251;107;1960197;-72
2021/07/19 05:28:34;;;;;;;;;;;;;;;28.79;54.36;98745.80;393387;106;1961024;-72
2021/07/19 05:29:40;;;;;;;;;;;;;;;28.69;54.38;98738.73;374697;107;1961026;-72
2021/07/19 05:30:52;;;;;;;;;;;;;;;28.85;54.28;98746.36;390213;106;1959848;-72
2021/07/19 05:31:58;;;;;;;;;;;;;;;28.75;54.23;98741.28;371234;109;1963058;-73
2021/07/19 05:33:22;;;;;;;;;;;;;;;28.75;54.16;98739.30;372112;109;1960127;-72
2021/07/19 05:34:34;;;;;;;;;;;;;;;28.92;54.08;98738.22;393206;104;2814002;-72
2021/07/19 05:35:40;;;;;;;;;;;;;;;28.84;54.05;98739.16;380144;107;1960091;-74
2021/07/19 05:36:45;;;;;;;;;;;;;;;29.10;53.23;98741.57;378086;107;1960013;-71
2021/07/19 05:37:57;;;;;;;;;;;;;;;29.06;53.56;98735.11;399811;104;1960993;-72
2021/07/19 05:39:02;;;;;;;;;;;;;;;29.08;53.13;98741.94;342637;105;2100966;-72
2021/07/19 05:40:08;;;;;;;;;;;;;;;29.09;53.21;98737.98;331705;108;2186972;-72
2021/07/19 05:41:21;;;;;;;;;;;;;;;29.32;53.08;98731.87;398034;104;1961029;-73
2021/07/19 05:42:26;;;;;;;;;;;;;;;29.30;52.57;98729.45;378630;107;1959999;-72
2021/07/19 05:43:37;;;;;;;;;;;;;;;29.52;52.17;98733.64;397486;104;1959851;-71
2021/07/19 05:44:42;;;;;;;;;;;;;;;29.50;51.79;98732.38;378269;107;1960046;-72
2021/07/19 05:45:48;;;;;;;;;;;;;;;29.57;51.28;98729.80;371658;110;1959983;-71
2021/07/19 05:47:01;;;;;;;;;;;;;;;29.79;51.12;98729.23;393235;106;1959964;-72
2021/07/19 05:48:07;;;;;;;;;;;;;;;29.72;51.32;98733.83;329574;107;2198989;-72
2021/07/19 05:49:19;;;;;;;;;;;;;;;29.91;50.82;98728.37;400976;104;1960964;-72
2021/07/19 05:50:25;;;;;;;;;;;;;;;29.86;50.84;98727.83;373825;107;1960008;-73
2021/07/19 05:51:48;;;;;;;;;;;;;;;29.93;50.82;98731.61;362845;107;2842034;-73
2021/07/19 05:52:54;;;;;;;;;;;;;;;30.00;50.54;98733.75;364931;107;2811975;-72
2021/07/19 05:54:03;;;;;;;;;;;;;;;30.01;50.58;98724.25;371170;107;1959904;-73
2021/07/19 05:55:08;;;;;;;;;;;;;;;30.01;50.56;98730.63;370968;107;1959931;-71
2021/07/19 05:56:21;;;;;;;;;;;;;;;30.15;50.50;98727.39;334952;104;2412957;-72
2021/07/19 05:57:27;;;;;;;;;;;;;;;30.08;50.50;98724.41;305528;107;2459966;-72
2021/07/19 05:58:32;;;;;;;;;;;;;;;30.15;50.28;98730.17;328084;107;2245068;-72